createdAt,value
2023-05-21T00:03:27.181Z,58.47
2023-05-21T00:08:28.876Z,58.49
2023-05-21T00:13:30.233Z,58.43
2023-05-21T00:18:32.509Z,58.75
2023-05-21T00:23:34.188Z,58.58
2023-05-21T00:28:35.647Z,58.58
2023-05-21T00:33:37.286Z,58.94
2023-05-21T00:38:38.697Z,58.54
2023-05-21T00:43:40.313Z,58.77
2023-05-21T00:48:43.669Z,58.71
2023-05-21T00:53:45.863Z,58.91
2023-05-21T00:58:47.919Z,58.86
2023-05-21T01:03:49.396Z,59.16
2023-05-21T01:08:50.942Z,59.33
2023-05-21T01:13:52.469Z,59.33
2023-05-21T01:18:53.989Z,59.24
2023-05-21T01:23:56.087Z,59.39
2023-05-21T01:28:57.464Z,59.25
2023-05-21T01:34:05.572Z,59.62
2023-05-21T01:39:19.427Z,59.47
2023-05-21T01:44:22.945Z,59.81
2023-05-21T01:49:24.953Z,59.56
2023-05-21T01:54:26.327Z,59.42
2023-05-21T01:59:27.888Z,59.53
2023-05-21T02:04:29.350Z,59.72
2023-05-21T02:09:30.735Z,59.69
2023-05-21T02:14:33.679Z,59.71
2023-05-21T02:19:35.408Z,60.25
2023-05-21T02:24:36.815Z,60.26
2023-05-21T02:29:38.225Z,60.55
2023-05-21T02:34:42.270Z,60.45
2023-05-21T02:39:43.717Z,60.72
2023-05-21T02:44:45.080Z,60.54
2023-05-21T02:49:46.954Z,60.90
2023-05-21T02:54:48.400Z,60.82
2023-05-21T02:59:49.799Z,60.64
2023-05-21T03:04:51.486Z,60.79
2023-05-21T03:09:53.007Z,60.81
2023-05-21T03:14:54.438Z,60.96
2023-05-21T03:19:56.080Z,60.81
2023-05-21T03:24:58.177Z,61.15
2023-05-21T03:29:59.597Z,61.19
2023-05-21T03:35:00.965Z,61.44
2023-05-21T03:40:02.496Z,61.42
2023-05-21T03:45:04.125Z,61.54
2023-05-21T03:50:06.231Z,61.77
2023-05-21T03:55:08.037Z,61.49
2023-05-21T04:00:09.952Z,61.67
2023-05-21T04:05:11.334Z,61.83
2023-05-21T04:10:13.124Z,61.85
2023-05-21T04:15:14.554Z,61.78
2023-05-21T04:20:16.744Z,61.56
2023-05-21T04:25:18.176Z,61.94
2023-05-21T04:30:20.015Z,61.44
2023-05-21T04:35:21.496Z,61.73
2023-05-21T04:40:24.312Z,61.84
2023-05-21T04:45:25.674Z,61.79
2023-05-21T04:50:27.068Z,61.58
2023-05-21T04:55:28.870Z,61.21
2023-05-21T05:00:30.396Z,61.50
2023-05-21T05:05:31.790Z,61.54
2023-05-21T05:10:33.166Z,61.07
2023-05-21T05:55:29.119Z,60.01
2023-05-21T06:00:30.674Z,60.03
2023-05-21T06:05:32.110Z,59.92
2023-05-21T06:10:33.495Z,59.49
2023-05-21T06:15:35.047Z,59.64
2023-05-21T06:20:37.073Z,59.40
2023-05-21T06:25:40.488Z,59.26
2023-05-21T06:30:42.138Z,59.23
2023-05-21T06:35:43.548Z,58.72
2023-05-21T06:40:47.373Z,58.68
2023-05-21T06:45:48.797Z,58.30
2023-05-21T06:50:50.188Z,58.19
2023-05-21T06:55:53.786Z,57.88
2023-05-21T07:00:55.353Z,57.90
2023-05-21T07:05:59.765Z,57.37
2023-05-21T07:11:01.187Z,57.25
2023-05-21T07:16:03.008Z,56.76
2023-05-21T07:21:04.536Z,56.47
2023-05-21T07:26:06.010Z,55.69
2023-05-21T07:31:08.338Z,55.13
2023-05-21T07:36:09.807Z,54.70
2023-05-21T07:41:11.303Z,54.35
2023-05-21T07:46:12.733Z,54.04
2023-05-21T07:51:14.405Z,53.44
2023-05-21T07:56:15.856Z,53.41
2023-05-21T08:01:17.286Z,52.60
2023-05-21T08:06:18.700Z,52.79
2023-05-21T08:11:21.723Z,52.41
2023-05-21T08:16:23.562Z,52.17
2023-05-21T08:21:25.047Z,51.63
2023-05-21T08:26:26.490Z,51.71
2023-05-21T08:31:28.106Z,51.53
2023-05-21T08:36:29.537Z,51.38
2023-05-21T08:41:33.648Z,51.21
2023-05-21T08:46:35.797Z,51.19
2023-05-21T08:51:38.864Z,50.93
2023-05-21T08:56:45.702Z,50.65
2023-05-21T09:01:49.938Z,50.38
2023-05-21T09:06:52.023Z,50.46
2023-05-21T09:11:53.692Z,50.56
2023-05-21T09:16:55.142Z,50.58
2023-05-21T09:22:02.615Z,50.02
2023-05-21T09:27:07.136Z,50.01
2023-05-21T09:32:09.946Z,49.49
2023-05-21T09:37:23.685Z,48.73
2023-05-21T09:42:29.747Z,47.85
2023-05-21T09:47:31.331Z,47.29
2023-05-21T09:52:36.598Z,46.85
2023-05-21T09:57:46.794Z,46.87
2023-05-21T10:02:50.589Z,46.27
2023-05-21T10:07:54.338Z,45.74
2023-05-21T10:13:00.758Z,45.39
2023-05-21T10:18:03.669Z,44.61
2023-05-21T10:23:06.172Z,44.48
2023-05-21T10:28:07.612Z,44.47
2023-05-21T10:33:09.234Z,43.83
2023-05-21T10:38:13.617Z,43.50
2023-05-21T10:43:36.560Z,42.39
2023-05-21T10:48:41.102Z,42.04
2023-05-21T10:54:09.050Z,41.98
2023-05-21T10:59:48.121Z,41.48
2023-05-21T11:04:58.654Z,40.70
2023-05-21T11:10:35.348Z,40.40
2023-05-21T11:15:58.612Z,39.29
2023-05-21T11:21:10.487Z,38.88
2023-05-21T11:26:12.001Z,38.05
2023-05-21T11:31:27.322Z,36.80
2023-05-21T11:36:28.849Z,35.92
2023-05-21T11:41:30.481Z,35.42
2023-05-21T11:46:33.981Z,34.20
2023-05-21T11:51:40.169Z,34.07
2023-05-21T11:56:41.921Z,33.27
2023-05-21T12:01:44.129Z,32.87
2023-05-21T12:06:45.704Z,32.36
2023-05-21T12:11:47.523Z,32.27
2023-05-21T12:16:49.017Z,31.26
2023-05-21T12:21:50.628Z,31.42
2023-05-21T12:26:52.170Z,31.08
2023-05-21T12:31:53.741Z,29.83
2023-05-21T12:36:55.556Z,30.62
2023-05-21T12:41:57.035Z,28.91
2023-05-21T12:46:59.473Z,29.29
2023-05-21T12:52:05.890Z,28.26
2023-05-21T12:57:15.226Z,28.44
2023-05-21T13:02:20.408Z,28.13
2023-05-21T13:07:21.779Z,28.57
2023-05-21T13:12:24.996Z,27.72
2023-05-21T13:17:27.684Z,26.88
2023-05-21T13:22:29.171Z,25.82
2023-05-21T13:27:30.997Z,26.26
2023-05-21T13:32:32.456Z,26.64
2023-05-21T13:37:36.131Z,26.96
2023-05-21T13:42:38.462Z,26.50
2023-05-21T13:47:40.663Z,26.03
2023-05-21T13:52:42.317Z,24.66
2023-05-21T13:57:44.168Z,25.37
2023-05-21T14:02:45.813Z,24.77
2023-05-21T14:07:48.239Z,24.39
2023-05-21T14:12:49.636Z,25.14
2023-05-21T14:17:52.271Z,24.88
2023-05-21T14:22:53.666Z,25.68
2023-05-21T14:27:55.032Z,25.40
2023-05-21T14:32:58.001Z,25.26
2023-05-21T14:37:59.491Z,25.73
2023-05-21T14:43:01.139Z,25.17
2023-05-21T14:48:08.172Z,25.41
2023-05-21T14:53:11.463Z,25.13
2023-05-21T14:58:13.248Z,25.63
2023-05-21T15:03:14.673Z,25.75
2023-05-21T15:08:16.083Z,25.41
2023-05-21T15:13:17.515Z,25.37
2023-05-21T15:18:18.900Z,25.47
2023-05-21T15:23:20.327Z,24.67
2023-05-21T15:28:22.846Z,25.45
2023-05-21T15:33:24.552Z,25.54
2023-05-21T15:38:25.953Z,25.77
2023-05-21T15:43:28.352Z,26.02
2023-05-21T15:48:29.746Z,25.93
2023-05-21T15:53:31.128Z,26.10
2023-05-21T15:58:32.585Z,26.21
2023-05-21T16:03:34.011Z,26.08
2023-05-21T16:08:35.428Z,25.27
2023-05-21T16:13:36.885Z,25.17
2023-05-21T16:18:38.498Z,25.43
2023-05-21T16:23:40.157Z,25.19
2023-05-21T16:28:41.672Z,24.88
2023-05-21T16:33:43.089Z,24.38
2023-05-21T16:38:44.653Z,23.63
2023-05-21T16:43:46.221Z,23.83
2023-05-21T16:48:47.588Z,23.62
2023-05-21T16:53:48.953Z,23.52
2023-05-21T16:58:50.343Z,23.98
2023-05-21T17:03:51.847Z,23.99
2023-05-21T17:08:53.374Z,24.08
2023-05-21T17:13:55.201Z,24.19
2023-05-21T17:18:56.603Z,23.92
2023-05-21T17:23:57.979Z,24.62
2023-05-21T17:28:59.359Z,24.82
2023-05-21T17:34:00.815Z,25.41
2023-05-21T17:39:02.365Z,25.96
2023-05-21T17:44:03.942Z,25.62
2023-05-21T17:49:07.358Z,26.25
2023-05-21T17:54:08.784Z,26.62
2023-05-21T17:59:10.946Z,26.31
2023-05-21T18:04:13.223Z,26.70
2023-05-21T18:09:15.390Z,27.27
2023-05-21T18:14:16.832Z,27.99
2023-05-21T18:19:18.297Z,28.54
2023-05-21T18:24:19.763Z,29.17
2023-05-21T18:29:21.146Z,29.77
2023-05-21T18:34:22.595Z,30.71
2023-05-21T18:39:24.818Z,31.91
2023-05-21T18:44:27.191Z,32.27
2023-05-21T18:49:33.723Z,33.23
2023-05-21T18:54:35.105Z,33.40
2023-05-21T18:59:38.587Z,34.28
2023-05-21T19:04:39.990Z,35.19
2023-05-21T19:09:41.430Z,36.17
2023-05-21T19:14:44.876Z,36.80
2023-05-21T19:19:46.272Z,37.28
2023-05-21T19:24:48.362Z,38.27
2023-05-21T19:29:49.804Z,38.62
2023-05-21T19:34:52.176Z,39.20
2023-05-21T19:39:53.552Z,39.75
2023-05-21T19:44:54.925Z,40.23
2023-05-21T19:49:56.412Z,40.51
2023-05-21T19:55:04.582Z,41.12
2023-05-21T20:00:10.154Z,41.47
2023-05-21T20:05:11.696Z,42.04
2023-05-21T20:10:13.180Z,42.54
2023-05-21T20:15:14.916Z,42.66
2023-05-21T20:20:16.735Z,42.87
2023-05-21T20:25:18.307Z,43.56
2023-05-21T20:30:19.723Z,43.20
2023-05-21T20:35:21.182Z,43.48
2023-05-21T20:40:22.669Z,44.14
2023-05-21T20:45:24.066Z,44.00
2023-05-21T20:50:28.596Z,43.97
2023-05-21T20:55:34.605Z,44.40
2023-05-21T21:00:38.493Z,45.37
2023-05-21T21:05:40.116Z,45.89
2023-05-21T21:10:42.602Z,46.61
2023-05-21T21:15:44.298Z,46.93
2023-05-21T21:20:49.770Z,47.04
2023-05-21T21:25:51.582Z,47.50
2023-05-21T21:30:53.110Z,48.13
2023-05-21T21:35:54.496Z,48.59
2023-05-21T21:40:55.925Z,48.86
2023-05-21T21:45:57.321Z,49.08
2023-05-21T21:50:58.968Z,49.41
2023-05-21T21:56:00.752Z,49.77
2023-05-21T22:01:02.227Z,49.92
2023-05-21T22:06:03.733Z,50.46
2023-05-21T22:11:05.228Z,50.95
2023-05-21T22:16:07.293Z,51.15
2023-05-21T22:21:14.179Z,51.61
2023-05-21T22:26:15.912Z,51.92
2023-05-21T22:31:17.492Z,52.89
2023-05-21T22:36:18.946Z,53.09
2023-05-21T22:41:20.684Z,53.98
2023-05-21T22:46:22.148Z,54.87
2023-05-21T22:51:23.730Z,55.22
2023-05-21T22:56:25.101Z,55.39
2023-05-21T23:01:26.670Z,55.55
2023-05-21T23:06:28.046Z,55.56
2023-05-21T23:11:29.436Z,56.02
2023-05-21T23:16:32.166Z,55.74
2023-05-21T23:21:33.605Z,55.72
2023-05-21T23:26:35.467Z,56.03
2023-05-21T23:31:36.992Z,56.11
2023-05-21T23:36:38.391Z,56.37
2023-05-21T23:41:39.815Z,56.11
2023-05-21T23:46:44.418Z,56.45
2023-05-21T23:51:46.665Z,57.21
2023-05-21T23:56:48.064Z,57.15
